sensor_id;sensor_type;location;lat;lon;timestamp;pressure;altitude;pressure_sealevel;temperature
77414;BMP280;66486;49.992;19.164;2023-04-01T00:00:59;97145.91;;;10.11
77414;BMP280;66486;49.992;19.164;2023-04-01T00:03:26;97151.38;;;10.16
77414;BMP280;66486;49.992;19.164;2023-04-01T00:05:54;97142.28;;;10.14
77414;BMP280;66486;49.992;19.164;2023-04-01T00:08:20;97140.06;;;10.12
77414;BMP280;66486;49.992;19.164;2023-04-01T00:10:47;97143.22;;;10.11
77414;BMP280;66486;49.992;19.164;2023-04-01T00:13:13;97142.59;;;10.07
77414;BMP280;66486;49.992;19.164;2023-04-01T00:15:41;97149.59;;;10.13
77414;BMP280;66486;49.992;19.164;2023-04-01T00:18:07;97135.16;;;10.02
77414;BMP280;66486;49.992;19.164;2023-04-01T00:20:33;97136.91;;;10.14
77414;BMP280;66486;49.992;19.164;2023-04-01T00:22:59;97127.66;;;10.15
77414;BMP280;66486;49.992;19.164;2023-04-01T00:25:25;97131.97;;;10.21
77414;BMP280;66486;49.992;19.164;2023-04-01T00:27:51;97132.16;;;10.18
77414;BMP280;66486;49.992;19.164;2023-04-01T00:30:17;97139.47;;;9.99
77414;BMP280;66486;49.992;19.164;2023-04-01T00:32:43;97130.66;;;9.98
77414;BMP280;66486;49.992;19.164;2023-04-01T00:35:10;97131.09;;;9.97
77414;BMP280;66486;49.992;19.164;2023-04-01T00:37:37;97132.16;;;9.90
77414;BMP280;66486;49.992;19.164;2023-04-01T00:40:24;97127.69;;;9.87
77414;BMP280;66486;49.992;19.164;2023-04-01T00:42:51;97118.88;;;9.87
77414;BMP280;66486;49.992;19.164;2023-04-01T00:45:37;97123.69;;;9.92
77414;BMP280;66486;49.992;19.164;2023-04-01T00:48:30;97114.13;;;9.82
77414;BMP280;66486;49.992;19.164;2023-04-01T00:53:30;97138.28;;;9.91
77414;BMP280;66486;49.992;19.164;2023-04-01T00:56:30;97138.28;;;9.91
77414;BMP280;66486;49.992;19.164;2023-04-01T00:59:01;97145.16;;;9.83
77414;BMP280;66486;49.992;19.164;2023-04-01T01:01:29;97130.41;;;9.78
77414;BMP280;66486;49.992;19.164;2023-04-01T01:03:56;97140.84;;;9.67
77414;BMP280;66486;49.992;19.164;2023-04-01T01:07:04;97149.03;;;9.55
77414;BMP280;66486;49.992;19.164;2023-04-01T01:24:30;97136.16;;;9.31
77414;BMP280;66486;49.992;19.164;2023-04-01T01:26:44;97140.34;;;9.32
77414;BMP280;66486;49.992;19.164;2023-04-01T01:32:16;97139.16;;;9.43
77414;BMP280;66486;49.992;19.164;2023-04-01T01:34:48;97138.69;;;9.35
77414;BMP280;66486;49.992;19.164;2023-04-01T01:37:20;97137.94;;;9.25
77414;BMP280;66486;49.992;19.164;2023-04-01T01:39:55;97143.75;;;9.24
77414;BMP280;66486;49.992;19.164;2023-04-01T01:42:23;97129.16;;;9.34
77414;BMP280;66486;49.992;19.164;2023-04-01T01:44:52;97140.47;;;9.29
77414;BMP280;66486;49.992;19.164;2023-04-01T01:47:20;97125.28;;;9.35
77414;BMP280;66486;49.992;19.164;2023-04-01T01:49:48;97134.06;;;9.26
77414;BMP280;66486;49.992;19.164;2023-04-01T01:52:16;97139.69;;;9.10
77414;BMP280;66486;49.992;19.164;2023-04-01T01:54:51;97147.47;;;9.26
77414;BMP280;66486;49.992;19.164;2023-04-01T01:57:22;97140.47;;;9.29
77414;BMP280;66486;49.992;19.164;2023-04-01T01:59:50;97143.47;;;9.31
77414;BMP280;66486;49.992;19.164;2023-04-01T02:02:18;97135.84;;;9.20
77414;BMP280;66486;49.992;19.164;2023-04-01T02:04:45;97147.47;;;9.26
77414;BMP280;66486;49.992;19.164;2023-04-01T02:07:23;97150.88;;;9.18
77414;BMP280;66486;49.992;19.164;2023-04-01T02:09:51;97152.56;;;9.24
77414;BMP280;66486;49.992;19.164;2023-04-01T02:12:19;97149.56;;;9.31
77414;BMP280;66486;49.992;19.164;2023-04-01T02:14:57;97165.09;;;9.36
77414;BMP280;66486;49.992;19.164;2023-04-01T02:17:27;97154.34;;;9.36
77414;BMP280;66486;49.992;19.164;2023-04-01T02:20:07;97156.91;;;9.49
77414;BMP280;66486;49.992;19.164;2023-04-01T02:22:38;97166.28;;;9.35
77414;BMP280;66486;49.992;19.164;2023-04-01T02:25:11;97162.09;;;9.34
77414;BMP280;66486;49.992;19.164;2023-04-01T02:27:38;97166.63;;;9.56
77414;BMP280;66486;49.992;19.164;2023-04-01T02:30:05;97166.00;;;9.61
77414;BMP280;66486;49.992;19.164;2023-04-01T02:32:34;97161.38;;;9.61
77414;BMP280;66486;49.992;19.164;2023-04-01T02:35:01;97166.63;;;9.56
77414;BMP280;66486;49.992;19.164;2023-04-01T02:37:31;97167.97;;;9.60
77414;BMP280;66486;49.992;19.164;2023-04-01T02:40:05;97163.34;;;9.52
77414;BMP280;66486;49.992;19.164;2023-04-01T02:42:35;97166.31;;;9.54
77414;BMP280;66486;49.992;19.164;2023-04-01T02:45:02;97162.28;;;9.49
77414;BMP280;66486;49.992;19.164;2023-04-01T02:47:28;97170.03;;;9.47
77414;BMP280;66486;49.992;19.164;2023-04-01T02:49:55;97165.09;;;9.46
77414;BMP280;66486;49.992;19.164;2023-04-01T02:52:25;97177.50;;;9.52
77414;BMP280;66486;49.992;19.164;2023-04-01T02:54:51;97178.72;;;9.51
77414;BMP280;66486;49.992;19.164;2023-04-01T02:57:17;97175.41;;;9.38
77414;BMP280;66486;49.992;19.164;2023-04-01T02:59:43;97183.44;;;9.47
77414;BMP280;66486;49.992;19.164;2023-04-01T03:02:09;97178.53;;;9.55
77414;BMP280;66486;49.992;19.164;2023-04-01T03:04:41;97183.16;;;9.54
77414;BMP280;66486;49.992;19.164;2023-04-01T03:07:08;97190.47;;;9.54
77414;BMP280;66486;49.992;19.164;2023-04-01T03:09:36;97190.19;;;9.52
77414;BMP280;66486;49.992;19.164;2023-04-01T03:12:02;97176.47;;;9.59
77414;BMP280;66486;49.992;19.164;2023-04-01T03:14:28;97176.94;;;9.66
77414;BMP280;66486;49.992;19.164;2023-04-01T03:16:54;97180.19;;;9.79
77414;BMP280;66486;49.992;19.164;2023-04-01T03:19:20;97179.59;;;9.75
77414;BMP280;66486;49.992;19.164;2023-04-01T03:21:46;97180.22;;;9.70
77414;BMP280;66486;49.992;19.164;2023-04-01T03:24:12;97180.66;;;9.69
77414;BMP280;66486;49.992;19.164;2023-04-01T03:26:38;97179.47;;;9.70
77414;BMP280;66486;49.992;19.164;2023-04-01T03:29:04;97174.09;;;9.70
77414;BMP280;66486;49.992;19.164;2023-04-01T03:31:30;97171.84;;;9.68
77414;BMP280;66486;49.992;19.164;2023-04-01T03:33:56;97179.63;;;9.84
77414;BMP280;66486;49.992;19.164;2023-04-01T03:36:22;97169.00;;;9.90
77414;BMP280;66486;49.992;19.164;2023-04-01T03:38:48;97174.25;;;9.84
77414;BMP280;66486;49.992;19.164;2023-04-01T03:41:17;97175.44;;;9.83
77414;BMP280;66486;49.992;19.164;2023-04-01T03:43:44;97180.53;;;9.81
77414;BMP280;66486;49.992;19.164;2023-04-01T03:46:11;97175.75;;;9.85
77414;BMP280;66486;49.992;19.164;2023-04-01T03:48:36;97178.56;;;9.91
77414;BMP280;66486;49.992;19.164;2023-04-01T03:51:06;97182.75;;;9.83
77414;BMP280;66486;49.992;19.164;2023-04-01T03:53:33;97182.13;;;9.79
77414;BMP280;66486;49.992;19.164;2023-04-01T03:56:04;97174.69;;;9.65
77414;BMP280;66486;49.992;19.164;2023-04-01T03:58:30;97191.66;;;9.53
77414;BMP280;66486;49.992;19.164;2023-04-01T04:00:56;97188.94;;;9.44
77414;BMP280;66486;49.992;19.164;2023-04-01T04:03:22;97188.06;;;9.38
77414;BMP280;66486;49.992;19.164;2023-04-01T04:05:49;97179.59;;;9.48
77414;BMP280;66486;49.992;19.164;2023-04-01T04:08:16;97190.41;;;9.35
77414;BMP280;66486;49.992;19.164;2023-04-01T04:10:42;97189.66;;;9.35
77414;BMP280;66486;49.992;19.164;2023-04-01T04:13:08;97182.06;;;9.24
77414;BMP280;66486;49.992;19.164;2023-04-01T04:15:35;97179.50;;;9.21
77414;BMP280;66486;49.992;19.164;2023-04-01T04:18:00;97176.41;;;9.22
77414;BMP280;66486;49.992;19.164;2023-04-01T04:20:26;97176.34;;;9.13
77414;BMP280;66486;49.992;19.164;2023-04-01T04:22:52;97176.66;;;9.15
77414;BMP280;66486;49.992;19.164;2023-04-01T04:25:18;97171.63;;;9.26
77414;BMP280;66486;49.992;19.164;2023-04-01T04:27:44;97182.19;;;9.12
77414;BMP280;66486;49.992;19.164;2023-04-01T04:30:11;97174.44;;;9.14
77414;BMP280;66486;49.992;19.164;2023-04-01T04:32:36;97182.94;;;9.12
77414;BMP280;66486;49.992;19.164;2023-04-01T04:35:03;97180.09;;;9.16
77414;BMP280;66486;49.992;19.164;2023-04-01T04:37:29;97180.84;;;9.25
77414;BMP280;66486;49.992;19.164;2023-04-01T04:39:55;97183.53;;;9.34
77414;BMP280;66486;49.992;19.164;2023-04-01T04:42:21;97177.47;;;9.34
77414;BMP280;66486;49.992;19.164;2023-04-01T04:44:47;97179.97;;;9.28
77414;BMP280;66486;49.992;19.164;2023-04-01T04:47:13;97177.94;;;9.42
77414;BMP280;66486;49.992;19.164;2023-04-01T04:49:39;97180.00;;;9.47
77414;BMP280;66486;49.992;19.164;2023-04-01T04:52:05;97186.16;;;9.56
77414;BMP280;66486;49.992;19.164;2023-04-01T04:54:31;97178.09;;;9.47
77414;BMP280;66486;49.992;19.164;2023-04-01T04:56:57;97180.78;;;9.47
77414;BMP280;66486;49.992;19.164;2023-04-01T04:59:23;97176.16;;;9.57
77414;BMP280;66486;49.992;19.164;2023-04-01T05:01:48;97180.78;;;9.56
77414;BMP280;66486;49.992;19.164;2023-04-01T05:04:15;97180.03;;;9.56
77414;BMP280;66486;49.992;19.164;2023-04-01T05:06:43;97178.88;;;9.66
77414;BMP280;66486;49.992;19.164;2023-04-01T05:09:10;97184.56;;;9.77
77414;BMP280;66486;49.992;19.164;2023-04-01T05:11:36;97184.56;;;9.77
77414;BMP280;66486;49.992;19.164;2023-04-01T05:14:02;97189.00;;;9.71
77414;BMP280;66486;49.992;19.164;2023-04-01T05:16:28;97182.91;;;9.88
77414;BMP280;66486;49.992;19.164;2023-04-01T05:18:54;97187.50;;;9.97
77414;BMP280;66486;49.992;19.164;2023-04-01T05:21:20;97187.66;;;10.12
77414;BMP280;66486;49.992;19.164;2023-04-01T05:23:46;97183.50;;;10.02
77414;BMP280;66486;49.992;19.164;2023-04-01T05:26:13;97177.84;;;9.99
77414;BMP280;66486;49.992;19.164;2023-04-01T05:28:40;97196.19;;;10.10
77414;BMP280;66486;49.992;19.164;2023-04-01T05:31:07;97187.53;;;10.06
77414;BMP280;66486;49.992;19.164;2023-04-01T05:33:33;97191.56;;;10.11
77414;BMP280;66486;49.992;19.164;2023-04-01T05:36:07;97191.41;;;9.96
77414;BMP280;66486;49.992;19.164;2023-04-01T05:38:33;97202.59;;;9.94
77414;BMP280;66486;49.992;19.164;2023-04-01T05:41:00;97203.19;;;9.80
77414;BMP280;66486;49.992;19.164;2023-04-01T05:43:26;97199.31;;;9.81
77414;BMP280;66486;49.992;19.164;2023-04-01T05:45:52;97206.03;;;10.04
77414;BMP280;66486;49.992;19.164;2023-04-01T05:48:18;97193.66;;;10.07
77414;BMP280;66486;49.992;19.164;2023-04-01T05:50:44;97197.53;;;9.96
77414;BMP280;66486;49.992;19.164;2023-04-01T05:53:10;97199.91;;;10.22
77414;BMP280;66486;49.992;19.164;2023-04-01T05:55:36;97197.22;;;10.13
77414;BMP280;66486;49.992;19.164;2023-04-01T05:58:02;97201.25;;;10.17
77414;BMP280;66486;49.992;19.164;2023-04-01T06:00:28;97201.34;;;10.50
77414;BMP280;66486;49.992;19.164;2023-04-01T06:02:54;97199.72;;;10.52
77414;BMP280;66486;49.992;19.164;2023-04-01T06:05:22;97194.75;;;10.60
77414;BMP280;66486;49.992;19.164;2023-04-01T06:07:55;97204.88;;;10.74
77414;BMP280;66486;49.992;19.164;2023-04-01T06:10:40;97199.38;;;10.69
77414;BMP280;66486;49.992;19.164;2023-04-01T06:21:42;97216.66;;;10.86
77414;BMP280;66486;49.992;19.164;2023-04-01T06:30:10;97200.56;;;11.33
77414;BMP280;66486;49.992;19.164;2023-04-01T06:32:57;97203.09;;;11.13
77414;BMP280;66486;49.992;19.164;2023-04-01T06:41:04;97218.09;;;11.28
77414;BMP280;66486;49.992;19.164;2023-04-01T06:49:12;97220.63;;;11.32
77414;BMP280;66486;49.992;19.164;2023-04-01T06:51:45;97210.69;;;11.23
77414;BMP280;66486;49.992;19.164;2023-04-01T06:54:52;97212.63;;;11.23
77414;BMP280;66486;49.992;19.164;2023-04-01T06:57:41;97215.16;;;11.50
77414;BMP280;66486;49.992;19.164;2023-04-01T07:00:15;97204.94;;;11.31
77414;BMP280;66486;49.992;19.164;2023-04-01T07:03:06;97222.69;;;11.37
77414;BMP280;66486;49.992;19.164;2023-04-01T07:05:34;97210.75;;;11.38
77414;BMP280;66486;49.992;19.164;2023-04-01T07:08:04;97210.22;;;11.49
77414;BMP280;66486;49.992;19.164;2023-04-01T07:10:43;97209.88;;;11.56
77414;BMP280;66486;49.992;19.164;2023-04-01T07:16:08;97219.78;;;11.73
77414;BMP280;66486;49.992;19.164;2023-04-01T07:18:50;97218.13;;;11.76
77414;BMP280;66486;49.992;19.164;2023-04-01T07:21:29;97214.53;;;11.93
77414;BMP280;66486;49.992;19.164;2023-04-01T07:24:01;97228.41;;;12.01
77414;BMP280;66486;49.992;19.164;2023-04-01T07:26:28;97221.06;;;12.02
77414;BMP280;66486;49.992;19.164;2023-04-01T07:28:56;97217.50;;;11.95
77414;BMP280;66486;49.992;19.164;2023-04-01T07:31:42;97220.31;;;12.01
77414;BMP280;66486;49.992;19.164;2023-04-01T07:34:25;97226.28;;;12.05
77414;BMP280;66486;49.992;19.164;2023-04-01T07:42:00;97223.31;;;12.47
77414;BMP280;66486;49.992;19.164;2023-04-01T07:44:29;97230.13;;;12.72
77414;BMP280;66486;49.992;19.164;2023-04-01T07:52:39;97236.19;;;12.67
77414;BMP280;66486;49.992;19.164;2023-04-01T07:55:21;97237.72;;;12.88
77414;BMP280;66486;49.992;19.164;2023-04-01T08:00:27;97241.03;;;13.12
77414;BMP280;66486;49.992;19.164;2023-04-01T08:05:41;97250.72;;;13.18
77414;BMP280;66486;49.992;19.164;2023-04-01T08:08:36;97243.13;;;13.22
77414;BMP280;66486;49.992;19.164;2023-04-01T08:11:28;97252.31;;;13.10
77414;BMP280;66486;49.992;19.164;2023-04-01T08:16:46;97262.03;;;13.22
77414;BMP280;66486;49.992;19.164;2023-04-01T08:22:09;97248.97;;;13.36
77414;BMP280;66486;49.992;19.164;2023-04-01T08:24:42;97259.81;;;13.56
77414;BMP280;66486;49.992;19.164;2023-04-01T08:29:57;97254.31;;;13.15
77414;BMP280;66486;49.992;19.164;2023-04-01T08:32:43;97254.63;;;13.17
77414;BMP280;66486;49.992;19.164;2023-04-01T08:35:21;97245.91;;;12.93
77414;BMP280;66486;49.992;19.164;2023-04-01T08:37:51;97253.31;;;12.78
77414;BMP280;66486;49.992;19.164;2023-04-01T08:40:41;97259.97;;;12.68
77414;BMP280;66486;49.992;19.164;2023-04-01T08:43:43;97254.19;;;12.75
77414;BMP280;66486;49.992;19.164;2023-04-01T08:49:12;97264.16;;;12.69
77414;BMP280;66486;49.992;19.164;2023-04-01T08:57:15;97266.13;;;12.39
77414;BMP280;66486;49.992;19.164;2023-04-01T09:00:10;97275.97;;;12.42
77414;BMP280;66486;49.992;19.164;2023-04-01T09:18:01;97277.38;;;12.38
77414;BMP280;66486;49.992;19.164;2023-04-01T09:32:04;97271.63;;;12.74
77414;BMP280;66486;49.992;19.164;2023-04-01T09:40:21;97273.63;;;12.94
77414;BMP280;66486;49.992;19.164;2023-04-01T09:45:43;97285.56;;;12.73
77414;BMP280;66486;49.992;19.164;2023-04-01T09:57:28;97286.16;;;13.26
77414;BMP280;66486;49.992;19.164;2023-04-01T10:00:32;97279.44;;;13.36
77414;BMP280;66486;49.992;19.164;2023-04-01T10:06:41;97286.91;;;13.81
77414;BMP280;66486;49.992;19.164;2023-04-01T10:17:11;97281.41;;;13.36
77414;BMP280;66486;49.992;19.164;2023-04-01T10:31:42;97283.66;;;13.08
77414;BMP280;66486;49.992;19.164;2023-04-01T10:37:42;97284.06;;;12.86
77414;BMP280;66486;49.992;19.164;2023-04-01T10:56:51;97292.34;;;12.68
77414;BMP280;66486;49.992;19.164;2023-04-01T11:10:32;97287.03;;;13.72
77414;BMP280;66486;49.992;19.164;2023-04-01T11:30:40;97273.53;;;13.72
77414;BMP280;66486;49.992;19.164;2023-04-01T11:33:15;97275.94;;;13.90
77414;BMP280;66486;49.992;19.164;2023-04-01T11:57:51;97294.63;;;14.14
77414;BMP280;66486;49.992;19.164;2023-04-01T12:06:34;97292.72;;;15.34
77414;BMP280;66486;49.992;19.164;2023-04-01T12:17:50;97294.19;;;14.16
77414;BMP280;66486;49.992;19.164;2023-04-01T12:34:39;97299.78;;;12.88
77414;BMP280;66486;49.992;19.164;2023-04-01T12:42:31;97307.50;;;14.19
77414;BMP280;66486;49.992;19.164;2023-04-01T12:50:31;97312.25;;;14.24
77414;BMP280;66486;49.992;19.164;2023-04-01T12:53:09;97307.66;;;14.36
77414;BMP280;66486;49.992;19.164;2023-04-01T12:55:44;97303.94;;;14.33
77414;BMP280;66486;49.992;19.164;2023-04-01T13:01:07;97304.06;;;14.44
77414;BMP280;66486;49.992;19.164;2023-04-01T13:09:11;97296.56;;;14.08
77414;BMP280;66486;49.992;19.164;2023-04-01T13:12:27;97298.47;;;13.82
77414;BMP280;66486;49.992;19.164;2023-04-01T13:28:51;97321.00;;;12.95
77414;BMP280;66486;49.992;19.164;2023-04-01T13:31:36;97318.50;;;13.06
77414;BMP280;66486;49.992;19.164;2023-04-01T13:54:16;97340.97;;;12.30
77414;BMP280;66486;49.992;19.164;2023-04-01T14:02:44;97341.88;;;12.80
77414;BMP280;66486;49.992;19.164;2023-04-01T14:08:36;97340.47;;;12.84
77414;BMP280;66486;49.992;19.164;2023-04-01T14:11:45;97324.91;;;12.94
77414;BMP280;66486;49.992;19.164;2023-04-01T14:17:03;97333.69;;;13.18
77414;BMP280;66486;49.992;19.164;2023-04-01T14:20:14;97329.72;;;13.33
77414;BMP280;66486;49.992;19.164;2023-04-01T14:22:48;97328.44;;;13.29
77414;BMP280;66486;49.992;19.164;2023-04-01T14:28:08;97328.19;;;13.12
77414;BMP280;66486;49.992;19.164;2023-04-01T14:30:48;97325.75;;;13.29
77414;BMP280;66486;49.992;19.164;2023-04-01T14:38:54;97310.56;;;13.86
77414;BMP280;66486;49.992;19.164;2023-04-01T14:41:47;97318.94;;;13.68
77414;BMP280;66486;49.992;19.164;2023-04-01T14:44:30;97321.72;;;13.94
77414;BMP280;66486;49.992;19.164;2023-04-01T14:50:12;97326.28;;;14.08
77414;BMP280;66486;49.992;19.164;2023-04-01T14:52:43;97333.88;;;14.24
77414;BMP280;66486;49.992;19.164;2023-04-01T14:55:25;97330.25;;;14.33
77414;BMP280;66486;49.992;19.164;2023-04-01T15:03:33;97329.63;;;14.43
77414;BMP280;66486;49.992;19.164;2023-04-01T15:11:42;97330.06;;;13.96
77414;BMP280;66486;49.992;19.164;2023-04-01T15:14:19;97328.69;;;14.00
77414;BMP280;66486;49.992;19.164;2023-04-01T15:39:16;97362.50;;;12.53
77414;BMP280;66486;49.992;19.164;2023-04-01T15:42:16;97376.94;;;12.65
77414;BMP280;66486;49.992;19.164;2023-04-01T15:53:03;97387.66;;;12.89
77414;BMP280;66486;49.992;19.164;2023-04-01T16:01:23;97401.16;;;12.50
77414;BMP280;66486;49.992;19.164;2023-04-01T16:07:07;97420.69;;;12.22
77414;BMP280;66486;49.992;19.164;2023-04-01T16:18:25;97421.50;;;11.11
77414;BMP280;66486;49.992;19.164;2023-04-01T16:26:15;97432.28;;;11.11
77414;BMP280;66486;49.992;19.164;2023-04-01T16:28:54;97431.84;;;10.95
77414;BMP280;66486;49.992;19.164;2023-04-01T16:31:50;97429.16;;;10.95
77414;BMP280;66486;49.992;19.164;2023-04-01T16:36:54;97432.00;;;11.00
77414;BMP280;66486;49.992;19.164;2023-04-01T16:47:40;97436.13;;;11.28
77414;BMP280;66486;49.992;19.164;2023-04-01T16:50:19;97441.84;;;11.21
77414;BMP280;66486;49.992;19.164;2023-04-01T16:55:50;97453.19;;;11.35
77414;BMP280;66486;49.992;19.164;2023-04-01T16:58:24;97455.31;;;11.31
77414;BMP280;66486;49.992;19.164;2023-04-01T17:01:02;97456.50;;;11.20
77414;BMP280;66486;49.992;19.164;2023-04-01T17:03:46;97462.94;;;11.23
77414;BMP280;66486;49.992;19.164;2023-04-01T17:06:31;97471.75;;;11.05
77414;BMP280;66486;49.992;19.164;2023-04-01T17:09:17;97467.72;;;11.10
77414;BMP280;66486;49.992;19.164;2023-04-01T17:12:00;97465.78;;;11.01
77414;BMP280;66486;49.992;19.164;2023-04-01T17:17:37;97472.50;;;11.15
77414;BMP280;66486;49.992;19.164;2023-04-01T17:23:01;97476.97;;;11.27
77414;BMP280;66486;49.992;19.164;2023-04-01T17:25:37;97483.88;;;11.28
77414;BMP280;66486;49.992;19.164;2023-04-01T17:31:01;97492.19;;;11.75
77414;BMP280;66486;49.992;19.164;2023-04-01T17:33:57;97492.75;;;11.79
77414;BMP280;66486;49.992;19.164;2023-04-01T17:36:47;97499.63;;;11.89
77414;BMP280;66486;49.992;19.164;2023-04-01T17:39:35;97495.66;;;12.09
77414;BMP280;66486;49.992;19.164;2023-04-01T17:50:23;97526.66;;;11.95
77414;BMP280;66486;49.992;19.164;2023-04-01T18:06:14;97549.66;;;11.27
77414;BMP280;66486;49.992;19.164;2023-04-01T18:08:56;97559.41;;;11.24
77414;BMP280;66486;49.992;19.164;2023-04-01T18:22:23;97567.91;;;11.23
77414;BMP280;66486;49.992;19.164;2023-04-01T18:25:04;97562.66;;;11.28
77414;BMP280;66486;49.992;19.164;2023-04-01T18:27:41;97573.00;;;11.21
77414;BMP280;66486;49.992;19.164;2023-04-01T18:30:28;97578.84;;;11.38
77414;BMP280;66486;49.992;19.164;2023-04-01T18:33:32;97572.22;;;10.93
77414;BMP280;66486;49.992;19.164;2023-04-01T18:38:36;97588.13;;;10.79
77414;BMP280;66486;49.992;19.164;2023-04-01T18:44:07;97591.09;;;11.20
77414;BMP280;66486;49.992;19.164;2023-04-01T18:49:41;97596.13;;;11.00
77414;BMP280;66486;49.992;19.164;2023-04-01T18:52:46;97597.91;;;11.03
77414;BMP280;66486;49.992;19.164;2023-04-01T19:01:23;97597.16;;;11.03
77414;BMP280;66486;49.992;19.164;2023-04-01T19:04:00;97604.81;;;11.04
77414;BMP280;66486;49.992;19.164;2023-04-01T19:06:44;97600.94;;;11.14
77414;BMP280;66486;49.992;19.164;2023-04-01T19:09:26;97608.75;;;11.49
77414;BMP280;66486;49.992;19.164;2023-04-01T19:15:28;97608.38;;;11.10
77414;BMP280;66486;49.992;19.164;2023-04-01T19:20:42;97614.06;;;11.03
77414;BMP280;66486;49.992;19.164;2023-04-01T19:23:52;97611.78;;;10.84
77414;BMP280;66486;49.992;19.164;2023-04-01T19:26:37;97618.06;;;10.81
77414;BMP280;66486;49.992;19.164;2023-04-01T19:31:58;97634.91;;;10.41
77414;BMP280;66486;49.992;19.164;2023-04-01T19:34:30;97640.97;;;10.33
77414;BMP280;66486;49.992;19.164;2023-04-01T19:37:26;97638.44;;;10.60
77414;BMP280;66486;49.992;19.164;2023-04-01T19:40:17;97641.53;;;10.89
77414;BMP280;66486;49.992;19.164;2023-04-01T19:43:01;97642.34;;;11.08
77414;BMP280;66486;49.992;19.164;2023-04-01T19:48:30;97655.41;;;11.27
77414;BMP280;66486;49.992;19.164;2023-04-01T19:51:12;97651.97;;;11.36
77414;BMP280;66486;49.992;19.164;2023-04-01T19:56:36;97662.28;;;11.28
77414;BMP280;66486;49.992;19.164;2023-04-01T20:04:49;97669.78;;;11.24
77414;BMP280;66486;49.992;19.164;2023-04-01T20:07:42;97660.16;;;11.14
77414;BMP280;66486;49.992;19.164;2023-04-01T20:10:17;97662.53;;;11.12
77414;BMP280;66486;49.992;19.164;2023-04-01T20:16:07;97669.88;;;10.72
77414;BMP280;66486;49.992;19.164;2023-04-01T20:18:41;97679.16;;;10.49
77414;BMP280;66486;49.992;19.164;2023-04-01T20:23:50;97673.72;;;10.71
77414;BMP280;66486;49.992;19.164;2023-04-01T20:26:26;97679.19;;;10.89
77414;BMP280;66486;49.992;19.164;2023-04-01T20:29:07;97682.53;;;11.02
77414;BMP280;66486;49.992;19.164;2023-04-01T20:31:42;97679.94;;;10.90
77414;BMP280;66486;49.992;19.164;2023-04-01T20:34:29;97676.63;;;10.77
77414;BMP280;66486;49.992;19.164;2023-04-01T20:37:34;97686.94;;;10.78
77414;BMP280;66486;49.992;19.164;2023-04-01T20:48:39;97684.97;;;11.18
77414;BMP280;66486;49.992;19.164;2023-04-01T20:51:07;97695.63;;;11.22
77414;BMP280;66486;49.992;19.164;2023-04-01T20:56:17;97691.38;;;10.72
77414;BMP280;66486;49.992;19.164;2023-04-01T20:58:52;97689.44;;;10.73
77414;BMP280;66486;49.992;19.164;2023-04-01T21:15:27;97705.41;;;10.67
77414;BMP280;66486;49.992;19.164;2023-04-01T21:26:40;97711.59;;;10.77
77414;BMP280;66486;49.992;19.164;2023-04-01T22:11:32;97733.75;;;10.90
77414;BMP280;66486;49.992;19.164;2023-04-01T22:13:59;97722.34;;;11.07
77414;BMP280;66486;49.992;19.164;2023-04-01T22:16:42;97733.75;;;11.20
77414;BMP280;66486;49.992;19.164;2023-04-01T22:19:52;97729.56;;;11.28
77414;BMP280;66486;49.992;19.164;2023-04-01T22:22:22;97739.63;;;11.37
77414;BMP280;66486;49.992;19.164;2023-04-01T22:25:08;97740.47;;;11.16
77414;BMP280;66486;49.992;19.164;2023-04-01T22:30:26;97740.38;;;10.98
77414;BMP280;66486;49.992;19.164;2023-04-01T22:33:02;97745.66;;;11.01
77414;BMP280;66486;49.992;19.164;2023-04-01T22:40:47;97739.16;;;10.90
77414;BMP280;66486;49.992;19.164;2023-04-01T22:46:09;97742.22;;;10.79
77414;BMP280;66486;49.992;19.164;2023-04-01T22:48:39;97744.69;;;10.64
77414;BMP280;66486;49.992;19.164;2023-04-01T22:56:38;97746.25;;;11.05
77414;BMP280;66486;49.992;19.164;2023-04-01T23:02:06;97746.28;;;11.14
77414;BMP280;66486;49.992;19.164;2023-04-01T23:04:39;97757.72;;;11.37
77414;BMP280;66486;49.992;19.164;2023-04-01T23:10:17;97756.06;;;11.30
77414;BMP280;66486;49.992;19.164;2023-04-01T23:12:44;97758.50;;;11.37
77414;BMP280;66486;49.992;19.164;2023-04-01T23:15:14;97757.56;;;11.40
77414;BMP280;66486;49.992;19.164;2023-04-01T23:18:05;97760.69;;;11.29
77414;BMP280;66486;49.992;19.164;2023-04-01T23:20:56;97762.50;;;11.23
77414;BMP280;66486;49.992;19.164;2023-04-01T23:26:25;97762.44;;;10.84
77414;BMP280;66486;49.992;19.164;2023-04-01T23:28:56;97770.63;;;10.80
77414;BMP280;66486;49.992;19.164;2023-04-01T23:34:00;97777.47;;;11.03
77414;BMP280;66486;49.992;19.164;2023-04-01T23:36:30;97771.75;;;10.92
77414;BMP280;66486;49.992;19.164;2023-04-01T23:39:06;97770.41;;;10.66
77414;BMP280;66486;49.992;19.164;2023-04-01T23:41:37;97770.81;;;10.42
77414;BMP280;66486;49.992;19.164;2023-04-01T23:44:13;97781.53;;;10.55
77414;BMP280;66486;49.992;19.164;2023-04-01T23:46:42;97779.31;;;10.41
77414;BMP280;66486;49.992;19.164;2023-04-01T23:49:21;97780.16;;;10.50
77414;BMP280;66486;49.992;19.164;2023-04-01T23:51:58;97776.16;;;10.77
77414;BMP280;66486;49.992;19.164;2023-04-01T23:54:34;97787.72;;;10.64
77414;BMP280;66486;49.992;19.164;2023-04-01T23:57:12;97784.66;;;10.53
77414;BMP280;66486;49.992;19.164;2023-04-01T23:59:39;97783.59;;;10.51
